createdAt,value
2018-07-21T00:00:01.889Z,18.70
2018-07-21T00:02:35.344Z,18.70
2018-07-21T00:05:08.769Z,18.60
2018-07-21T00:07:42.211Z,18.60
2018-07-21T00:10:15.637Z,18.60
2018-07-21T00:12:49.118Z,18.50
2018-07-21T00:15:22.537Z,18.50
2018-07-21T00:17:56.008Z,18.50
2018-07-21T00:20:29.492Z,18.50
2018-07-21T00:23:03.105Z,18.50
2018-07-21T00:25:36.529Z,18.50
2018-07-21T00:28:09.961Z,18.50
2018-07-21T00:30:43.353Z,18.50
2018-07-21T00:33:16.799Z,18.50
2018-07-21T00:35:50.184Z,18.30
2018-07-21T00:38:23.624Z,18.20
2018-07-21T00:40:57.041Z,18.30
2018-07-21T00:43:30.485Z,18.40
2018-07-21T00:46:03.917Z,18.40
2018-07-21T00:48:37.368Z,18.30
2018-07-21T00:51:10.792Z,18.30
2018-07-21T00:53:44.277Z,18.20
2018-07-21T00:56:17.703Z,18.20
2018-07-21T00:58:51.148Z,18.20
2018-07-21T01:01:24.626Z,18.10
2018-07-21T01:03:58.095Z,18.00
2018-07-21T01:06:31.483Z,18.00
2018-07-21T01:09:07.546Z,18.00
2018-07-21T01:11:40.972Z,18.00
2018-07-21T01:14:14.397Z,17.90
2018-07-21T01:16:47.832Z,17.90
2018-07-21T01:19:21.234Z,18.00
2018-07-21T01:21:54.703Z,18.00
2018-07-21T01:24:28.151Z,18.00
2018-07-21T01:27:01.571Z,18.00
2018-07-21T01:29:35.041Z,17.90
2018-07-21T01:32:08.444Z,17.90
2018-07-21T01:34:41.856Z,17.90
2018-07-21T01:37:15.320Z,17.90
2018-07-21T01:39:48.776Z,17.80
2018-07-21T01:42:23.161Z,17.80
2018-07-21T01:44:56.559Z,17.80
2018-07-21T01:47:29.984Z,17.80
2018-07-21T01:50:03.417Z,17.80
2018-07-21T01:52:36.975Z,17.80
2018-07-21T01:55:10.373Z,17.80
2018-07-21T01:57:43.836Z,17.80
2018-07-21T02:00:17.256Z,17.80
2018-07-21T02:02:50.745Z,17.90
2018-07-21T02:05:24.160Z,17.80
2018-07-21T02:07:57.632Z,17.80
2018-07-21T02:10:31.337Z,17.70
2018-07-21T02:13:04.810Z,17.80
2018-07-21T02:15:38.264Z,17.80
2018-07-21T02:18:11.658Z,17.80
2018-07-21T02:20:45.131Z,17.70
2018-07-21T02:23:18.534Z,17.70
2018-07-21T02:25:51.936Z,17.60
2018-07-21T02:28:25.340Z,17.60
2018-07-21T02:30:58.773Z,17.60
2018-07-21T02:33:32.165Z,17.60
2018-07-21T02:36:05.612Z,17.50
2018-07-21T02:38:39.013Z,17.50
2018-07-21T02:41:12.440Z,17.40
2018-07-21T02:43:45.825Z,17.40
2018-07-21T02:46:19.339Z,17.30
2018-07-21T02:48:52.765Z,17.40
2018-07-21T02:51:26.193Z,17.40
2018-07-21T02:53:59.652Z,17.50
2018-07-21T02:56:33.086Z,17.50
2018-07-21T02:59:06.590Z,17.60
2018-07-21T03:01:40.008Z,17.70
2018-07-21T03:04:13.384Z,17.70
2018-07-21T03:06:46.893Z,17.80
2018-07-21T03:09:20.301Z,17.80
2018-07-21T03:11:53.708Z,17.80
2018-07-21T03:14:27.129Z,17.90
2018-07-21T03:17:00.537Z,17.90
2018-07-21T03:19:33.945Z,17.90
2018-07-21T03:22:07.406Z,17.70
2018-07-21T03:24:40.841Z,17.70
2018-07-21T03:27:14.227Z,17.70
2018-07-21T03:29:47.685Z,17.60
2018-07-21T03:32:21.070Z,17.60
2018-07-21T03:34:54.500Z,17.60
2018-07-21T03:37:27.978Z,17.60
2018-07-21T03:40:01.600Z,17.60
2018-07-21T03:42:35.041Z,17.70
2018-07-21T03:45:08.496Z,17.70
2018-07-21T03:47:41.889Z,17.80
2018-07-21T03:50:15.348Z,17.90
2018-07-21T03:52:48.736Z,17.90
2018-07-21T03:55:22.247Z,17.80
2018-07-21T03:57:55.677Z,17.90
2018-07-21T04:00:29.159Z,17.90
2018-07-21T04:03:02.540Z,17.90
2018-07-21T04:05:35.992Z,17.90
2018-07-21T04:08:09.401Z,18.00
2018-07-21T04:10:42.827Z,18.00
2018-07-21T04:13:16.252Z,17.80
2018-07-21T04:15:49.656Z,17.80
2018-07-21T04:18:23.061Z,17.90
2018-07-21T04:20:56.497Z,17.90
2018-07-21T04:23:29.923Z,18.00
2018-07-21T04:26:03.323Z,18.00
2018-07-21T04:28:36.716Z,18.00
2018-07-21T04:31:10.160Z,18.00
2018-07-21T04:33:43.560Z,18.00
2018-07-21T04:36:17.016Z,18.00
2018-07-21T04:38:50.406Z,18.00
2018-07-21T04:41:24.044Z,18.00
2018-07-21T04:43:57.453Z,18.00
2018-07-21T04:46:30.906Z,18.10
2018-07-21T04:49:04.337Z,18.10
2018-07-21T04:51:37.769Z,18.10
2018-07-21T04:54:11.214Z,18.00
2018-07-21T04:56:44.631Z,18.10
2018-07-21T04:59:18.111Z,18.10
2018-07-21T05:01:51.604Z,18.10
2018-07-21T05:04:25.031Z,18.00
2018-07-21T05:06:58.453Z,18.10
2018-07-21T05:09:31.863Z,18.00
2018-07-21T05:12:05.361Z,18.00
2018-07-21T05:14:38.762Z,18.00
2018-07-21T05:17:12.243Z,18.10
2018-07-21T05:19:45.661Z,18.10
2018-07-21T05:22:19.082Z,18.10
2018-07-21T05:24:52.525Z,18.10
2018-07-21T05:27:25.940Z,18.20
2018-07-21T05:29:59.446Z,18.20
2018-07-21T05:32:32.883Z,18.20
2018-07-21T05:35:06.412Z,18.30
2018-07-21T05:37:39.839Z,18.30
2018-07-21T05:40:13.278Z,18.40
2018-07-21T05:42:46.727Z,18.40
2018-07-21T05:45:20.167Z,18.50
2018-07-21T05:47:53.652Z,18.60
2018-07-21T05:50:27.087Z,18.60
2018-07-21T05:53:00.722Z,18.60
2018-07-21T05:55:34.160Z,18.60
2018-07-21T05:58:07.659Z,18.70
2018-07-21T06:00:41.080Z,18.70
2018-07-21T06:03:14.528Z,18.70
2018-07-21T06:05:47.951Z,18.70
2018-07-21T06:08:21.439Z,18.70
2018-07-21T06:10:54.867Z,18.70
2018-07-21T06:13:28.381Z,18.80
2018-07-21T06:16:01.897Z,18.80
2018-07-21T06:18:35.344Z,18.70
2018-07-21T06:21:08.770Z,18.70
2018-07-21T06:23:42.253Z,18.80
2018-07-21T06:26:15.703Z,18.80
2018-07-21T06:28:49.155Z,18.90
2018-07-21T06:31:22.628Z,18.90
2018-07-21T06:33:56.053Z,19.00
2018-07-21T06:36:29.535Z,19.10
2018-07-21T06:39:03.114Z,19.10
2018-07-21T06:41:36.564Z,19.10
2018-07-21T06:44:10.164Z,19.10
2018-07-21T06:46:43.669Z,19.10
2018-07-21T06:49:17.090Z,19.10
2018-07-21T06:51:50.526Z,19.10
2018-07-21T06:54:23.981Z,19.10
2018-07-21T06:56:57.476Z,19.00
2018-07-21T06:59:30.947Z,19.10
2018-07-21T07:02:04.500Z,19.00
2018-07-21T07:04:38.110Z,19.10
2018-07-21T07:07:11.581Z,19.20
2018-07-21T07:09:45.136Z,19.20
2018-07-21T07:12:18.616Z,19.20
2018-07-21T07:14:52.021Z,19.30
2018-07-21T07:17:25.515Z,19.40
2018-07-21T07:19:58.980Z,19.40
2018-07-21T07:22:32.464Z,19.30
2018-07-21T07:25:05.945Z,19.20
2018-07-21T07:27:39.432Z,19.40
2018-07-21T07:30:12.941Z,19.50
2018-07-21T07:32:46.400Z,19.60
2018-07-21T07:35:19.865Z,19.70
2018-07-21T07:37:53.263Z,19.70
2018-07-21T07:40:26.847Z,19.80
2018-07-21T07:43:00.312Z,19.90
2018-07-21T07:45:33.797Z,20.00
2018-07-21T07:48:07.269Z,20.00
2018-07-21T07:50:40.725Z,20.00
2018-07-21T07:53:14.162Z,20.00
2018-07-21T07:55:47.649Z,20.10
2018-07-21T07:58:21.140Z,20.10
2018-07-21T08:00:54.636Z,20.10
2018-07-21T08:03:28.074Z,20.10
2018-07-21T08:06:01.553Z,20.10
2018-07-21T08:08:35.045Z,20.10
2018-07-21T08:11:08.501Z,20.10
2018-07-21T08:13:41.956Z,20.10
2018-07-21T08:16:15.458Z,20.10
2018-07-21T08:18:48.949Z,20.10
2018-07-21T08:21:22.429Z,20.00
2018-07-21T08:23:55.904Z,19.90
2018-07-21T08:26:29.478Z,20.00
2018-07-21T08:29:02.940Z,20.00
2018-07-21T08:31:36.457Z,20.10
2018-07-21T08:34:09.906Z,20.00
2018-07-21T08:36:43.409Z,20.10
2018-07-21T08:39:16.892Z,20.10
2018-07-21T08:41:50.352Z,20.20
2018-07-21T08:44:23.784Z,20.10
2018-07-21T08:46:57.233Z,20.10
2018-07-21T08:49:30.702Z,20.30
2018-07-21T08:52:04.201Z,20.30
2018-07-21T08:54:37.640Z,20.30
2018-07-21T08:57:11.303Z,20.40
2018-07-21T08:59:44.828Z,20.40
2018-07-21T09:02:18.338Z,20.40
2018-07-21T09:04:51.864Z,20.40
2018-07-21T09:07:25.371Z,20.40
2018-07-21T09:09:58.866Z,20.40
2018-07-21T09:12:32.366Z,20.50
2018-07-21T09:15:05.869Z,20.50
2018-07-21T09:17:39.316Z,20.50
2018-07-21T09:20:12.813Z,20.50
2018-07-21T09:22:46.362Z,20.50
2018-07-21T09:25:19.823Z,20.60
2018-07-21T09:27:53.312Z,20.60
2018-07-21T09:30:26.883Z,20.70
2018-07-21T09:33:00.304Z,20.70
2018-07-21T09:35:33.818Z,20.80
2018-07-21T09:38:07.294Z,20.70
2018-07-21T09:40:40.779Z,20.80
2018-07-21T09:43:14.283Z,20.80
2018-07-21T09:45:47.720Z,20.90
2018-07-21T09:48:21.180Z,21.00
2018-07-21T09:50:54.678Z,20.90
2018-07-21T09:53:28.096Z,20.90
2018-07-21T09:56:01.693Z,20.90
2018-07-21T09:58:35.103Z,20.90
2018-07-21T10:01:08.572Z,21.00
2018-07-21T10:03:42.044Z,20.90
2018-07-21T10:06:15.561Z,20.90
2018-07-21T10:08:49.029Z,21.00
2018-07-21T10:11:22.538Z,20.90
2018-07-21T10:13:56.077Z,21.00
2018-07-21T10:16:29.553Z,21.10
2018-07-21T10:19:03.064Z,21.20
2018-07-21T10:21:36.526Z,21.30
2018-07-21T10:24:15.225Z,21.30
2018-07-21T10:26:54.088Z,21.30
2018-07-21T10:29:27.559Z,21.30
2018-07-21T10:32:01.037Z,21.50
2018-07-21T10:34:34.584Z,21.50
2018-07-21T10:37:08.133Z,21.40
2018-07-21T10:39:41.668Z,21.50
2018-07-21T10:42:15.320Z,21.40
2018-07-21T10:44:48.748Z,21.40
2018-07-21T10:47:22.389Z,21.40
2018-07-21T10:49:55.874Z,21.30
2018-07-21T10:52:29.344Z,21.30
2018-07-21T10:55:02.810Z,21.30
2018-07-21T10:57:36.352Z,21.30
2018-07-21T11:00:09.908Z,21.20
2018-07-21T11:02:43.429Z,21.20
2018-07-21T11:05:17.071Z,21.10
2018-07-21T11:07:50.539Z,21.00
2018-07-21T11:10:24.014Z,20.90
2018-07-21T11:12:57.523Z,20.90
2018-07-21T11:15:31.062Z,20.90
2018-07-21T11:18:04.605Z,20.90
2018-07-21T11:20:38.049Z,21.00
2018-07-21T11:23:11.544Z,21.10
2018-07-21T11:25:45.006Z,21.20
2018-07-21T11:28:18.511Z,21.30
2018-07-21T11:30:51.979Z,21.40
2018-07-21T11:33:25.445Z,21.40
2018-07-21T11:35:59.265Z,21.30
2018-07-21T11:38:32.485Z,21.20
2018-07-21T11:41:06.079Z,21.20
2018-07-21T11:43:39.522Z,21.10
2018-07-21T11:46:13.036Z,21.00
2018-07-21T11:48:46.539Z,20.90
2018-07-21T11:51:20.058Z,20.70
2018-07-21T11:53:53.543Z,20.70
2018-07-21T11:56:27.065Z,20.50
2018-07-21T11:59:00.562Z,20.40
2018-07-21T12:01:34.141Z,20.40
2018-07-21T12:04:07.678Z,20.40
2018-07-21T12:06:41.190Z,20.30
2018-07-21T12:09:14.713Z,20.40
2018-07-21T12:11:48.300Z,20.40
2018-07-21T12:14:21.879Z,20.40
2018-07-21T12:16:55.470Z,20.30
2018-07-21T12:19:28.973Z,20.00
2018-07-21T12:22:02.466Z,20.00
2018-07-21T12:24:35.984Z,20.10
2018-07-21T12:27:09.543Z,20.20
2018-07-21T12:29:43.098Z,20.20
2018-07-21T12:32:16.641Z,20.40
2018-07-21T12:34:50.228Z,20.40
2018-07-21T12:37:23.725Z,20.50
2018-07-21T12:39:57.266Z,20.60
2018-07-21T12:42:30.811Z,20.60
2018-07-21T12:45:04.805Z,20.70
2018-07-21T12:47:38.466Z,20.70
2018-07-21T12:50:12.057Z,20.80
2018-07-21T12:52:45.641Z,20.80
2018-07-21T12:55:19.230Z,20.90
2018-07-21T12:57:53.238Z,20.90
2018-07-21T13:00:26.770Z,20.90
2018-07-21T13:03:00.271Z,21.10
2018-07-21T13:05:33.785Z,21.20
2018-07-21T13:08:07.377Z,21.40
2018-07-21T13:10:40.921Z,21.30
2018-07-21T13:13:14.409Z,21.40
2018-07-21T13:15:48.023Z,21.50
2018-07-21T13:18:21.572Z,21.60
2018-07-21T13:20:55.156Z,21.70
2018-07-21T13:23:28.697Z,22.00
2018-07-21T13:28:35.391Z,22.30
2018-07-21T13:31:09.330Z,22.30
2018-07-21T13:33:42.925Z,22.20
2018-07-21T13:36:16.517Z,22.20
2018-07-21T13:38:50.026Z,22.10
2018-07-21T13:41:23.633Z,22.40
2018-07-21T13:43:57.135Z,22.50
2018-07-21T13:46:30.779Z,22.50
2018-07-21T13:49:04.369Z,22.50
2018-07-21T13:51:37.960Z,22.60
2018-07-21T13:54:11.569Z,22.20
2018-07-21T13:56:45.141Z,22.10
2018-07-21T13:59:18.691Z,22.20
2018-07-21T14:01:52.261Z,22.10
2018-07-21T14:04:25.757Z,22.20
2018-07-21T14:06:59.374Z,22.10
2018-07-21T14:09:32.876Z,22.20
2018-07-21T14:12:06.510Z,22.20
2018-07-21T14:14:40.017Z,22.00
2018-07-21T14:17:13.566Z,22.00
2018-07-21T14:19:47.098Z,22.00
2018-07-21T14:22:20.736Z,21.90
2018-07-21T14:24:54.324Z,21.70
2018-07-21T14:27:27.866Z,21.60
2018-07-21T14:30:01.529Z,21.60
2018-07-21T14:32:34.978Z,21.60
2018-07-21T14:35:08.633Z,21.60
2018-07-21T14:37:42.177Z,21.50
2018-07-21T14:40:15.704Z,21.40
2018-07-21T14:42:49.310Z,21.40
2018-07-21T14:45:22.869Z,21.40
2018-07-21T14:47:56.433Z,21.40
2018-07-21T14:50:30.101Z,21.40
2018-07-21T14:53:03.658Z,21.40
2018-07-21T14:55:37.164Z,21.60
2018-07-21T14:58:10.724Z,21.70
2018-07-21T15:00:44.321Z,21.70
2018-07-21T15:03:17.907Z,21.80
2018-07-21T15:05:51.416Z,21.70
2018-07-21T15:08:24.933Z,21.70
2018-07-21T15:10:58.438Z,21.70
2018-07-21T15:16:05.417Z,21.80
2018-07-21T15:18:38.877Z,21.70
2018-07-21T15:21:12.456Z,21.70
2018-07-21T15:23:46.006Z,21.80
2018-07-21T15:26:19.531Z,21.70
2018-07-21T15:28:53.065Z,21.80
2018-07-21T15:31:26.537Z,21.90
2018-07-21T15:34:00.016Z,22.00
2018-07-21T15:36:33.599Z,22.00
2018-07-21T15:39:08.530Z,22.00
2018-07-21T15:41:42.079Z,22.00
2018-07-21T15:44:15.661Z,22.10
2018-07-21T15:46:49.148Z,22.20
2018-07-21T15:49:22.635Z,22.20
2018-07-21T15:51:57.178Z,22.30
2018-07-21T15:54:30.818Z,22.20
2018-07-21T15:57:04.412Z,22.10
2018-07-21T15:59:37.942Z,22.10
2018-07-21T16:02:11.495Z,22.10
2018-07-21T16:07:18.337Z,22.00
2018-07-21T16:09:51.848Z,22.00
2018-07-21T16:12:25.317Z,21.80
2018-07-21T16:15:03.869Z,21.80
2018-07-21T16:17:32.427Z,21.70
2018-07-21T16:20:05.907Z,21.60
2018-07-21T16:22:39.384Z,21.70
2018-07-21T16:25:12.885Z,21.80
2018-07-21T16:27:46.441Z,21.80
2018-07-21T16:30:20.160Z,21.70
2018-07-21T16:32:53.664Z,21.70
2018-07-21T16:35:27.114Z,21.60
2018-07-21T16:38:00.646Z,21.70
2018-07-21T16:40:34.074Z,21.60
2018-07-21T16:43:07.684Z,21.70
2018-07-21T16:45:41.192Z,21.70
2018-07-21T16:48:14.729Z,21.70
2018-07-21T16:50:48.190Z,21.70
2018-07-21T16:53:21.721Z,21.70
2018-07-21T16:55:55.180Z,21.70
2018-07-21T16:58:28.749Z,21.70
2018-07-21T17:01:02.277Z,21.70
2018-07-21T17:03:35.839Z,21.60
2018-07-21T17:06:09.400Z,21.60
2018-07-21T17:08:42.953Z,21.50
2018-07-21T17:11:16.415Z,21.50
2018-07-21T17:13:49.917Z,21.50
2018-07-21T17:16:23.412Z,21.40
2018-07-21T17:18:56.913Z,21.30
2018-07-21T17:21:30.388Z,21.40
2018-07-21T17:24:03.817Z,21.30
2018-07-21T17:26:37.274Z,21.30
2018-07-21T17:31:43.941Z,21.10
2018-07-21T17:34:17.484Z,21.10
2018-07-21T17:36:50.933Z,21.10
2018-07-21T17:39:25.347Z,21.20
2018-07-21T17:41:58.799Z,21.10
2018-07-21T17:44:32.285Z,21.00
2018-07-21T17:47:05.895Z,21.00
2018-07-21T17:49:39.352Z,21.00
2018-07-21T17:52:12.910Z,21.00
2018-07-21T17:54:46.334Z,20.90
2018-07-21T17:57:19.917Z,20.90
2018-07-21T17:59:53.332Z,20.90
2018-07-21T18:02:26.818Z,20.80
2018-07-21T18:05:00.325Z,20.80
2018-07-21T18:07:33.849Z,20.70
2018-07-21T18:10:07.291Z,20.70
2018-07-21T18:12:40.809Z,20.70
2018-07-21T18:15:14.489Z,20.70
2018-07-21T18:17:48.033Z,20.70
2018-07-21T18:20:21.586Z,20.60
2018-07-21T18:22:55.170Z,20.80
2018-07-21T18:25:28.657Z,20.70
2018-07-21T18:28:02.164Z,20.80
2018-07-21T18:30:35.661Z,20.60
2018-07-21T18:33:09.175Z,20.60
2018-07-21T18:35:42.625Z,20.50
2018-07-21T18:38:16.105Z,20.30
2018-07-21T18:40:49.574Z,20.10
2018-07-21T18:43:23.088Z,20.00
2018-07-21T18:45:56.640Z,19.90
2018-07-21T18:48:30.127Z,19.80
2018-07-21T18:51:03.630Z,19.80
2018-07-21T18:53:37.131Z,19.80
2018-07-21T18:56:10.909Z,19.70
2018-07-21T18:58:44.496Z,19.70
2018-07-21T19:01:18.037Z,19.60
2018-07-21T19:03:51.563Z,19.50
2018-07-21T19:06:25.085Z,19.50
2018-07-21T19:09:02.328Z,19.50
2018-07-21T19:11:35.940Z,19.50
2018-07-21T19:14:09.458Z,19.50
2018-07-21T19:19:17.078Z,19.30
2018-07-21T19:21:50.597Z,19.20
2018-07-21T19:24:24.102Z,19.20
2018-07-21T19:27:02.992Z,19.10
2018-07-21T19:29:36.763Z,19.10
2018-07-21T19:32:15.741Z,19.10
2018-07-21T19:34:49.257Z,19.10
2018-07-21T19:37:28.145Z,19.10
2018-07-21T19:40:02.043Z,19.10
2018-07-21T19:42:35.631Z,19.10
2018-07-21T19:45:09.144Z,19.00
2018-07-21T19:47:43.447Z,19.00
2018-07-21T19:50:16.885Z,19.00
2018-07-21T19:52:50.426Z,19.00
2018-07-21T19:55:23.874Z,18.90
2018-07-21T19:57:57.392Z,18.90
2018-07-21T20:00:31.217Z,18.80
2018-07-21T20:03:05.047Z,18.80
2018-07-21T20:05:38.544Z,18.70
2018-07-21T20:08:12.041Z,18.70
2018-07-21T20:10:45.567Z,18.80
2018-07-21T20:13:19.064Z,18.80
2018-07-21T20:15:52.513Z,18.80
2018-07-21T20:18:25.993Z,18.80
2018-07-21T20:20:59.577Z,18.80
2018-07-21T20:23:33.070Z,18.80
2018-07-21T20:26:06.620Z,18.80
2018-07-21T20:28:40.106Z,18.70
2018-07-21T20:31:13.618Z,18.80
2018-07-21T20:33:47.130Z,18.80
2018-07-21T20:36:20.625Z,18.80
2018-07-21T20:38:54.187Z,18.80
2018-07-21T20:41:27.705Z,18.90
2018-07-21T20:44:01.198Z,18.80
2018-07-21T20:46:35.190Z,18.80
2018-07-21T20:49:08.641Z,18.80
2018-07-21T20:51:42.172Z,18.80
2018-07-21T20:54:15.703Z,18.80
2018-07-21T20:56:49.234Z,18.70
2018-07-21T20:59:22.737Z,18.70
2018-07-21T21:01:56.250Z,18.70
2018-07-21T21:04:29.703Z,18.70
2018-07-21T21:07:03.363Z,18.70
2018-07-21T21:09:36.845Z,18.70
2018-07-21T21:12:10.435Z,18.60
2018-07-21T21:14:43.904Z,18.70
2018-07-21T21:17:17.366Z,18.70
2018-07-21T21:19:50.982Z,18.60
2018-07-21T21:22:24.510Z,18.60
2018-07-21T21:24:58.265Z,18.60
2018-07-21T21:27:32.104Z,18.60
2018-07-21T21:30:05.677Z,18.60
2018-07-21T21:32:39.184Z,18.60
2018-07-21T21:35:12.659Z,18.60
2018-07-21T21:37:46.185Z,18.60
2018-07-21T21:40:19.721Z,18.60
2018-07-21T21:42:53.210Z,18.70
2018-07-21T21:45:26.723Z,18.60
2018-07-21T21:48:00.246Z,18.60
2018-07-21T21:50:33.678Z,18.60
2018-07-21T21:53:07.193Z,18.60
2018-07-21T21:55:41.044Z,18.60
2018-07-21T21:58:14.536Z,18.50
2018-07-21T22:01:08.266Z,18.50
2018-07-21T22:03:41.980Z,18.50
2018-07-21T22:06:15.576Z,18.50
2018-07-21T22:08:49.025Z,18.50
2018-07-21T22:11:22.732Z,18.60
2018-07-21T22:13:56.174Z,18.60
2018-07-21T22:16:29.677Z,18.60
2018-07-21T22:19:03.161Z,18.60
2018-07-21T22:21:36.796Z,18.60
2018-07-21T22:24:10.216Z,18.60
2018-07-21T22:26:43.758Z,18.60
2018-07-21T22:29:17.322Z,18.60
2018-07-21T22:31:50.756Z,18.50
2018-07-21T22:34:24.242Z,18.50
2018-07-21T22:36:57.729Z,18.50
2018-07-21T22:39:32.191Z,18.50
2018-07-21T22:42:05.704Z,18.50
2018-07-21T22:44:39.631Z,18.40
2018-07-21T22:49:46.289Z,18.50
2018-07-21T22:52:19.783Z,18.50
2018-07-21T22:54:53.229Z,18.50
2018-07-21T22:57:26.700Z,18.50
2018-07-21T23:00:00.188Z,18.50
2018-07-21T23:02:33.659Z,18.50
2018-07-21T23:05:07.133Z,18.40
2018-07-21T23:07:40.702Z,18.40
2018-07-21T23:10:14.160Z,18.40
2018-07-21T23:12:47.624Z,18.40
2018-07-21T23:15:21.103Z,18.40
2018-07-21T23:17:54.542Z,18.40
2018-07-21T23:20:28.023Z,18.40
2018-07-21T23:23:01.436Z,18.40
2018-07-21T23:25:34.957Z,18.30
2018-07-21T23:28:08.404Z,18.20
2018-07-21T23:30:41.851Z,18.20
2018-07-21T23:33:15.296Z,18.20
2018-07-21T23:35:48.755Z,18.20
2018-07-21T23:38:22.273Z,18.20
2018-07-21T23:40:55.780Z,18.20
2018-07-21T23:43:29.175Z,18.20
2018-07-21T23:46:02.662Z,18.20
2018-07-21T23:48:36.076Z,18.20
2018-07-21T23:51:09.564Z,18.20
2018-07-21T23:53:43.004Z,18.20
2018-07-21T23:56:16.464Z,18.20
2018-07-21T23:58:49.897Z,18.20
